sensor_id;sensor_type;location;lat;lon;timestamp;P1;durP1;ratioP1;P2;durP2;ratioP2
12707;SDS011;6418;50.824;4.718;2024-02-23T00:00:52;6.87;;;3.00;;
12707;SDS011;6418;50.824;4.718;2024-02-23T00:03:18;8.50;;;3.30;;
12707;SDS011;6418;50.824;4.718;2024-02-23T00:05:45;8.77;;;3.23;;
12707;SDS011;6418;50.824;4.718;2024-02-23T00:08:14;8.30;;;3.70;;
12707;SDS011;6418;50.824;4.718;2024-02-23T00:10:40;7.50;;;3.40;;
12707;SDS011;6418;50.824;4.718;2024-02-23T00:13:07;12.13;;;3.67;;
12707;SDS011;6418;50.824;4.718;2024-02-23T00:15:34;6.53;;;3.43;;
12707;SDS011;6418;50.824;4.718;2024-02-23T00:18:01;6.47;;;3.50;;
12707;SDS011;6418;50.824;4.718;2024-02-23T00:20:29;11.63;;;3.47;;
12707;SDS011;6418;50.824;4.718;2024-02-23T00:22:56;9.53;;;3.53;;
12707;SDS011;6418;50.824;4.718;2024-02-23T00:25:24;5.57;;;3.50;;
12707;SDS011;6418;50.824;4.718;2024-02-23T00:27:51;8.43;;;3.20;;
12707;SDS011;6418;50.824;4.718;2024-02-23T00:30:18;9.13;;;3.37;;
12707;SDS011;6418;50.824;4.718;2024-02-23T00:32:45;8.67;;;3.43;;
12707;SDS011;6418;50.824;4.718;2024-02-23T00:35:12;7.17;;;3.03;;
12707;SDS011;6418;50.824;4.718;2024-02-23T00:37:40;11.40;;;3.93;;
12707;SDS011;6418;50.824;4.718;2024-02-23T00:40:07;7.70;;;3.67;;
12707;SDS011;6418;50.824;4.718;2024-02-23T00:42:36;12.50;;;4.43;;
12707;SDS011;6418;50.824;4.718;2024-02-23T00:45:04;10.67;;;4.20;;
12707;SDS011;6418;50.824;4.718;2024-02-23T00:47:31;9.03;;;4.13;;
12707;SDS011;6418;50.824;4.718;2024-02-23T00:50:00;8.53;;;3.80;;
12707;SDS011;6418;50.824;4.718;2024-02-23T00:52:27;8.40;;;3.77;;
12707;SDS011;6418;50.824;4.718;2024-02-23T00:54:54;8.17;;;3.80;;
12707;SDS011;6418;50.824;4.718;2024-02-23T00:57:21;6.37;;;3.27;;
12707;SDS011;6418;50.824;4.718;2024-02-23T00:59:53;7.47;;;3.53;;
12707;SDS011;6418;50.824;4.718;2024-02-23T01:02:20;6.87;;;3.70;;
12707;SDS011;6418;50.824;4.718;2024-02-23T01:04:47;7.47;;;3.53;;
12707;SDS011;6418;50.824;4.718;2024-02-23T01:07:14;8.17;;;3.43;;
12707;SDS011;6418;50.824;4.718;2024-02-23T01:09:41;9.37;;;3.60;;
12707;SDS011;6418;50.824;4.718;2024-02-23T01:12:08;7.67;;;3.53;;
12707;SDS011;6418;50.824;4.718;2024-02-23T01:14:35;7.53;;;3.70;;
12707;SDS011;6418;50.824;4.718;2024-02-23T01:17:03;10.77;;;3.93;;
12707;SDS011;6418;50.824;4.718;2024-02-23T01:19:30;8.33;;;3.63;;
12707;SDS011;6418;50.824;4.718;2024-02-23T01:21:57;6.77;;;3.43;;
12707;SDS011;6418;50.824;4.718;2024-02-23T01:24:25;9.77;;;4.00;;
12707;SDS011;6418;50.824;4.718;2024-02-23T01:26:52;8.37;;;3.90;;
12707;SDS011;6418;50.824;4.718;2024-02-23T01:29:20;7.73;;;3.80;;
12707;SDS011;6418;50.824;4.718;2024-02-23T01:31:47;7.87;;;3.63;;
12707;SDS011;6418;50.824;4.718;2024-02-23T01:34:15;8.30;;;3.70;;
12707;SDS011;6418;50.824;4.718;2024-02-23T01:36:42;12.07;;;4.30;;
12707;SDS011;6418;50.824;4.718;2024-02-23T01:39:09;6.77;;;3.80;;
12707;SDS011;6418;50.824;4.718;2024-02-23T01:41:37;9.83;;;4.07;;
12707;SDS011;6418;50.824;4.718;2024-02-23T01:44:04;8.87;;;4.10;;
12707;SDS011;6418;50.824;4.718;2024-02-23T01:46:31;7.30;;;3.97;;
12707;SDS011;6418;50.824;4.718;2024-02-23T01:48:58;10.20;;;4.10;;
12707;SDS011;6418;50.824;4.718;2024-02-23T01:51:27;9.73;;;3.97;;
12707;SDS011;6418;50.824;4.718;2024-02-23T01:53:54;8.40;;;4.10;;
12707;SDS011;6418;50.824;4.718;2024-02-23T01:56:21;11.73;;;4.00;;
12707;SDS011;6418;50.824;4.718;2024-02-23T01:58:48;7.97;;;3.57;;
12707;SDS011;6418;50.824;4.718;2024-02-23T02:01:16;10.97;;;4.00;;
12707;SDS011;6418;50.824;4.718;2024-02-23T02:03:43;10.03;;;3.90;;
12707;SDS011;6418;50.824;4.718;2024-02-23T02:06:10;11.63;;;3.80;;
12707;SDS011;6418;50.824;4.718;2024-02-23T02:08:38;8.23;;;3.63;;
12707;SDS011;6418;50.824;4.718;2024-02-23T02:11:06;8.97;;;3.60;;
12707;SDS011;6418;50.824;4.718;2024-02-23T02:13:33;10.87;;;3.63;;
12707;SDS011;6418;50.824;4.718;2024-02-23T02:16:00;7.97;;;3.27;;
12707;SDS011;6418;50.824;4.718;2024-02-23T02:18:27;8.70;;;3.33;;
12707;SDS011;6418;50.824;4.718;2024-02-23T02:20:55;8.97;;;3.57;;
12707;SDS011;6418;50.824;4.718;2024-02-23T02:23:23;6.77;;;3.50;;
12707;SDS011;6418;50.824;4.718;2024-02-23T02:25:54;9.07;;;3.40;;
12707;SDS011;6418;50.824;4.718;2024-02-23T02:28:22;10.00;;;3.67;;
12707;SDS011;6418;50.824;4.718;2024-02-23T02:30:50;10.77;;;3.43;;
12707;SDS011;6418;50.824;4.718;2024-02-23T02:33:17;10.10;;;3.80;;
12707;SDS011;6418;50.824;4.718;2024-02-23T02:35:44;11.97;;;4.00;;
12707;SDS011;6418;50.824;4.718;2024-02-23T02:38:11;10.50;;;3.80;;
12707;SDS011;6418;50.824;4.718;2024-02-23T02:40:38;9.00;;;3.73;;
12707;SDS011;6418;50.824;4.718;2024-02-23T02:43:06;12.63;;;3.77;;
12707;SDS011;6418;50.824;4.718;2024-02-23T02:45:34;9.60;;;3.60;;
12707;SDS011;6418;50.824;4.718;2024-02-23T02:48:01;14.43;;;3.90;;
12707;SDS011;6418;50.824;4.718;2024-02-23T02:50:28;14.70;;;3.80;;
12707;SDS011;6418;50.824;4.718;2024-02-23T02:52:55;11.00;;;3.67;;
12707;SDS011;6418;50.824;4.718;2024-02-23T02:55:22;12.30;;;3.80;;
12707;SDS011;6418;50.824;4.718;2024-02-23T02:57:49;10.80;;;3.50;;
12707;SDS011;6418;50.824;4.718;2024-02-23T03:00:17;11.83;;;3.53;;
12707;SDS011;6418;50.824;4.718;2024-02-23T03:02:44;11.80;;;3.43;;
12707;SDS011;6418;50.824;4.718;2024-02-23T03:05:11;11.83;;;3.60;;
12707;SDS011;6418;50.824;4.718;2024-02-23T03:07:38;13.30;;;3.67;;
12707;SDS011;6418;50.824;4.718;2024-02-23T03:10:05;9.37;;;3.63;;
12707;SDS011;6418;50.824;4.718;2024-02-23T03:12:33;11.87;;;3.53;;
12707;SDS011;6418;50.824;4.718;2024-02-23T03:15:00;13.50;;;4.13;;
12707;SDS011;6418;50.824;4.718;2024-02-23T03:17:29;9.93;;;3.87;;
12707;SDS011;6418;50.824;4.718;2024-02-23T03:19:56;8.47;;;3.30;;
12707;SDS011;6418;50.824;4.718;2024-02-23T03:22:23;13.47;;;3.73;;
12707;SDS011;6418;50.824;4.718;2024-02-23T03:24:50;12.03;;;4.07;;
12707;SDS011;6418;50.824;4.718;2024-02-23T03:27:16;8.37;;;3.30;;
12707;SDS011;6418;50.824;4.718;2024-02-23T03:29:43;8.23;;;3.50;;
12707;SDS011;6418;50.824;4.718;2024-02-23T03:32:10;12.83;;;3.77;;
12707;SDS011;6418;50.824;4.718;2024-02-23T03:34:38;14.73;;;3.47;;
12707;SDS011;6418;50.824;4.718;2024-02-23T03:37:05;12.40;;;3.70;;
12707;SDS011;6418;50.824;4.718;2024-02-23T03:39:32;12.60;;;3.50;;
12707;SDS011;6418;50.824;4.718;2024-02-23T03:41:59;7.33;;;3.23;;
12707;SDS011;6418;50.824;4.718;2024-02-23T03:44:26;13.73;;;4.00;;
12707;SDS011;6418;50.824;4.718;2024-02-23T03:46:53;11.90;;;4.00;;
12707;SDS011;6418;50.824;4.718;2024-02-23T03:49:20;13.70;;;3.50;;
12707;SDS011;6418;50.824;4.718;2024-02-23T03:51:48;12.50;;;3.67;;
12707;SDS011;6418;50.824;4.718;2024-02-23T03:54:15;14.60;;;3.83;;
12707;SDS011;6418;50.824;4.718;2024-02-23T03:56:42;9.80;;;3.67;;
12707;SDS011;6418;50.824;4.718;2024-02-23T03:59:09;9.93;;;3.60;;
12707;SDS011;6418;50.824;4.718;2024-02-23T04:01:36;10.93;;;3.63;;
12707;SDS011;6418;50.824;4.718;2024-02-23T04:04:03;11.97;;;4.20;;
12707;SDS011;6418;50.824;4.718;2024-02-23T04:06:30;11.87;;;4.00;;
12707;SDS011;6418;50.824;4.718;2024-02-23T04:08:59;16.40;;;4.30;;
12707;SDS011;6418;50.824;4.718;2024-02-23T04:11:26;11.00;;;3.50;;
12707;SDS011;6418;50.824;4.718;2024-02-23T04:13:53;12.23;;;3.83;;
12707;SDS011;6418;50.824;4.718;2024-02-23T04:16:22;10.57;;;3.73;;
12707;SDS011;6418;50.824;4.718;2024-02-23T04:18:49;11.03;;;3.93;;
12707;SDS011;6418;50.824;4.718;2024-02-23T04:21:17;12.47;;;3.87;;
12707;SDS011;6418;50.824;4.718;2024-02-23T04:23:43;11.83;;;3.73;;
12707;SDS011;6418;50.824;4.718;2024-02-23T04:26:13;10.17;;;3.53;;
12707;SDS011;6418;50.824;4.718;2024-02-23T04:28:40;12.93;;;3.53;;
12707;SDS011;6418;50.824;4.718;2024-02-23T04:31:07;9.80;;;3.90;;
12707;SDS011;6418;50.824;4.718;2024-02-23T04:33:34;10.07;;;3.80;;
12707;SDS011;6418;50.824;4.718;2024-02-23T04:36:01;13.50;;;4.00;;
12707;SDS011;6418;50.824;4.718;2024-02-23T04:38:29;13.20;;;3.90;;
12707;SDS011;6418;50.824;4.718;2024-02-23T04:40:56;11.23;;;3.57;;
12707;SDS011;6418;50.824;4.718;2024-02-23T04:43:25;15.10;;;3.87;;
12707;SDS011;6418;50.824;4.718;2024-02-23T04:45:52;9.60;;;3.97;;
12707;SDS011;6418;50.824;4.718;2024-02-23T04:48:19;12.83;;;4.10;;
12707;SDS011;6418;50.824;4.718;2024-02-23T04:50:46;13.73;;;4.20;;
12707;SDS011;6418;50.824;4.718;2024-02-23T04:53:13;10.80;;;3.70;;
12707;SDS011;6418;50.824;4.718;2024-02-23T04:55:40;14.73;;;4.27;;
12707;SDS011;6418;50.824;4.718;2024-02-23T04:58:07;12.03;;;4.13;;
12707;SDS011;6418;50.824;4.718;2024-02-23T05:00:35;10.20;;;3.63;;
12707;SDS011;6418;50.824;4.718;2024-02-23T05:03:02;15.80;;;4.00;;
12707;SDS011;6418;50.824;4.718;2024-02-23T05:05:29;11.87;;;4.17;;
12707;SDS011;6418;50.824;4.718;2024-02-23T05:07:56;14.73;;;4.30;;
12707;SDS011;6418;50.824;4.718;2024-02-23T05:10:23;16.43;;;4.53;;
12707;SDS011;6418;50.824;4.718;2024-02-23T05:12:50;16.67;;;4.60;;
12707;SDS011;6418;50.824;4.718;2024-02-23T05:15:17;11.17;;;3.87;;
12707;SDS011;6418;50.824;4.718;2024-02-23T05:17:45;11.47;;;3.83;;
12707;SDS011;6418;50.824;4.718;2024-02-23T05:20:13;11.23;;;3.73;;
12707;SDS011;6418;50.824;4.718;2024-02-23T05:22:40;12.23;;;3.93;;
12707;SDS011;6418;50.824;4.718;2024-02-23T05:25:07;15.77;;;4.30;;
12707;SDS011;6418;50.824;4.718;2024-02-23T05:27:35;14.87;;;4.47;;
12707;SDS011;6418;50.824;4.718;2024-02-23T05:30:02;14.13;;;3.67;;
12707;SDS011;6418;50.824;4.718;2024-02-23T05:32:29;12.80;;;4.20;;
12707;SDS011;6418;50.824;4.718;2024-02-23T05:34:57;8.93;;;3.87;;
12707;SDS011;6418;50.824;4.718;2024-02-23T05:37:24;15.10;;;4.30;;
12707;SDS011;6418;50.824;4.718;2024-02-23T05:39:52;13.17;;;4.30;;
12707;SDS011;6418;50.824;4.718;2024-02-23T05:42:19;12.80;;;4.10;;
12707;SDS011;6418;50.824;4.718;2024-02-23T05:44:46;12.20;;;3.73;;
12707;SDS011;6418;50.824;4.718;2024-02-23T05:47:14;16.03;;;4.17;;
12707;SDS011;6418;50.824;4.718;2024-02-23T05:49:41;9.93;;;3.60;;
12707;SDS011;6418;50.824;4.718;2024-02-23T05:52:09;11.27;;;3.97;;
12707;SDS011;6418;50.824;4.718;2024-02-23T05:54:36;12.03;;;4.00;;
12707;SDS011;6418;50.824;4.718;2024-02-23T05:57:03;10.57;;;3.90;;
12707;SDS011;6418;50.824;4.718;2024-02-23T05:59:30;10.23;;;3.93;;
12707;SDS011;6418;50.824;4.718;2024-02-23T06:01:57;12.73;;;4.13;;
12707;SDS011;6418;50.824;4.718;2024-02-23T06:04:24;10.97;;;4.17;;
12707;SDS011;6418;50.824;4.718;2024-02-23T06:06:52;12.73;;;4.03;;
12707;SDS011;6418;50.824;4.718;2024-02-23T06:09:20;12.07;;;3.83;;
12707;SDS011;6418;50.824;4.718;2024-02-23T06:11:47;12.47;;;4.10;;
12707;SDS011;6418;50.824;4.718;2024-02-23T06:14:14;11.83;;;3.83;;
12707;SDS011;6418;50.824;4.718;2024-02-23T06:16:41;13.23;;;4.07;;
12707;SDS011;6418;50.824;4.718;2024-02-23T06:19:08;13.03;;;3.93;;
12707;SDS011;6418;50.824;4.718;2024-02-23T06:21:35;16.80;;;4.57;;
12707;SDS011;6418;50.824;4.718;2024-02-23T06:24:02;14.43;;;4.00;;
12707;SDS011;6418;50.824;4.718;2024-02-23T06:26:31;16.20;;;4.20;;
12707;SDS011;6418;50.824;4.718;2024-02-23T06:28:58;10.67;;;4.10;;
12707;SDS011;6418;50.824;4.718;2024-02-23T06:31:24;7.73;;;3.43;;
12707;SDS011;6418;50.824;4.718;2024-02-23T06:33:51;10.97;;;3.90;;
12707;SDS011;6418;50.824;4.718;2024-02-23T06:36:18;12.80;;;4.13;;
12707;SDS011;6418;50.824;4.718;2024-02-23T06:38:45;11.67;;;3.90;;
12707;SDS011;6418;50.824;4.718;2024-02-23T06:41:12;10.97;;;3.67;;
12707;SDS011;6418;50.824;4.718;2024-02-23T06:43:41;15.67;;;4.20;;
12707;SDS011;6418;50.824;4.718;2024-02-23T06:46:08;11.43;;;3.90;;
12707;SDS011;6418;50.824;4.718;2024-02-23T06:48:35;16.00;;;4.27;;
12707;SDS011;6418;50.824;4.718;2024-02-23T06:51:03;12.63;;;3.80;;
12707;SDS011;6418;50.824;4.718;2024-02-23T06:53:30;11.90;;;3.97;;
12707;SDS011;6418;50.824;4.718;2024-02-23T06:55:57;12.97;;;3.90;;
12707;SDS011;6418;50.824;4.718;2024-02-23T06:58:25;11.97;;;4.10;;
12707;SDS011;6418;50.824;4.718;2024-02-23T07:00:54;12.53;;;3.93;;
12707;SDS011;6418;50.824;4.718;2024-02-23T07:03:21;9.30;;;3.63;;
12707;SDS011;6418;50.824;4.718;2024-02-23T07:05:48;12.07;;;3.90;;
12707;SDS011;6418;50.824;4.718;2024-02-23T07:08:15;13.47;;;3.90;;
12707;SDS011;6418;50.824;4.718;2024-02-23T07:10:42;15.13;;;3.90;;
12707;SDS011;6418;50.824;4.718;2024-02-23T07:13:09;10.63;;;3.70;;
12707;SDS011;6418;50.824;4.718;2024-02-23T07:15:36;13.43;;;3.93;;
12707;SDS011;6418;50.824;4.718;2024-02-23T07:18:05;12.47;;;3.80;;
12707;SDS011;6418;50.824;4.718;2024-02-23T07:20:33;13.33;;;4.10;;
12707;SDS011;6418;50.824;4.718;2024-02-23T07:23:01;13.67;;;4.00;;
12707;SDS011;6418;50.824;4.718;2024-02-23T07:25:28;14.37;;;4.00;;
12707;SDS011;6418;50.824;4.718;2024-02-23T07:27:55;10.67;;;3.83;;
12707;SDS011;6418;50.824;4.718;2024-02-23T07:30:22;18.93;;;4.50;;
12707;SDS011;6418;50.824;4.718;2024-02-23T07:32:49;10.57;;;3.80;;
12707;SDS011;6418;50.824;4.718;2024-02-23T07:35:17;13.10;;;4.70;;
12707;SDS011;6418;50.824;4.718;2024-02-23T07:37:44;14.37;;;4.10;;
12707;SDS011;6418;50.824;4.718;2024-02-23T07:40:11;9.00;;;3.77;;
12707;SDS011;6418;50.824;4.718;2024-02-23T07:42:38;16.00;;;4.03;;
12707;SDS011;6418;50.824;4.718;2024-02-23T07:45:06;11.87;;;3.80;;
12707;SDS011;6418;50.824;4.718;2024-02-23T07:47:34;12.60;;;3.97;;
12707;SDS011;6418;50.824;4.718;2024-02-23T07:50:01;14.10;;;4.40;;
12707;SDS011;6418;50.824;4.718;2024-02-23T07:52:30;17.57;;;3.93;;
12707;SDS011;6418;50.824;4.718;2024-02-23T07:54:56;16.97;;;4.00;;
12707;SDS011;6418;50.824;4.718;2024-02-23T07:57:25;11.47;;;3.90;;
12707;SDS011;6418;50.824;4.718;2024-02-23T07:59:52;17.13;;;4.20;;
12707;SDS011;6418;50.824;4.718;2024-02-23T08:02:19;10.37;;;4.20;;
12707;SDS011;6418;50.824;4.718;2024-02-23T08:04:46;10.07;;;3.90;;
12707;SDS011;6418;50.824;4.718;2024-02-23T08:07:15;12.90;;;4.10;;
12707;SDS011;6418;50.824;4.718;2024-02-23T08:09:43;15.17;;;3.93;;
12707;SDS011;6418;50.824;4.718;2024-02-23T08:12:10;16.20;;;4.30;;
12707;SDS011;6418;50.824;4.718;2024-02-23T08:14:38;12.30;;;4.10;;
12707;SDS011;6418;50.824;4.718;2024-02-23T08:17:06;14.13;;;4.27;;
12707;SDS011;6418;50.824;4.718;2024-02-23T08:19:33;13.43;;;4.03;;
12707;SDS011;6418;50.824;4.718;2024-02-23T08:22:00;13.20;;;4.27;;
12707;SDS011;6418;50.824;4.718;2024-02-23T08:24:26;12.77;;;4.17;;
12707;SDS011;6418;50.824;4.718;2024-02-23T08:26:55;15.60;;;4.40;;
12707;SDS011;6418;50.824;4.718;2024-02-23T08:29:22;15.20;;;4.37;;
12707;SDS011;6418;50.824;4.718;2024-02-23T08:31:48;9.30;;;3.63;;
12707;SDS011;6418;50.824;4.718;2024-02-23T08:34:15;16.40;;;4.50;;
12707;SDS011;6418;50.824;4.718;2024-02-23T08:36:43;17.03;;;4.70;;
12707;SDS011;6418;50.824;4.718;2024-02-23T08:39:10;13.97;;;4.57;;
12707;SDS011;6418;50.824;4.718;2024-02-23T08:41:37;11.07;;;4.03;;
12707;SDS011;6418;50.824;4.718;2024-02-23T08:44:06;14.43;;;4.30;;
12707;SDS011;6418;50.824;4.718;2024-02-23T08:46:33;16.30;;;4.37;;
12707;SDS011;6418;50.824;4.718;2024-02-23T08:49:02;15.77;;;4.17;;
12707;SDS011;6418;50.824;4.718;2024-02-23T08:51:29;16.07;;;4.40;;
12707;SDS011;6418;50.824;4.718;2024-02-23T08:53:56;13.50;;;4.37;;
12707;SDS011;6418;50.824;4.718;2024-02-23T08:56:28;13.10;;;4.30;;
12707;SDS011;6418;50.824;4.718;2024-02-23T08:58:55;16.10;;;4.43;;
12707;SDS011;6418;50.824;4.718;2024-02-23T09:01:23;13.20;;;4.20;;
12707;SDS011;6418;50.824;4.718;2024-02-23T09:03:50;13.77;;;4.47;;
12707;SDS011;6418;50.824;4.718;2024-02-23T09:06:17;11.73;;;4.40;;
12707;SDS011;6418;50.824;4.718;2024-02-23T09:08:44;12.33;;;4.20;;
12707;SDS011;6418;50.824;4.718;2024-02-23T09:11:11;13.83;;;4.30;;
12707;SDS011;6418;50.824;4.718;2024-02-23T09:13:40;10.10;;;3.90;;
12707;SDS011;6418;50.824;4.718;2024-02-23T09:16:07;11.00;;;4.03;;
12707;SDS011;6418;50.824;4.718;2024-02-23T09:18:36;9.77;;;3.50;;
12707;SDS011;6418;50.824;4.718;2024-02-23T09:21:03;8.93;;;3.70;;
12707;SDS011;6418;50.824;4.718;2024-02-23T09:23:30;14.67;;;4.20;;
12707;SDS011;6418;50.824;4.718;2024-02-23T09:25:57;10.77;;;4.00;;
12707;SDS011;6418;50.824;4.718;2024-02-23T09:28:25;11.43;;;4.20;;
12707;SDS011;6418;50.824;4.718;2024-02-23T09:30:52;11.97;;;4.10;;
12707;SDS011;6418;50.824;4.718;2024-02-23T09:33:19;11.43;;;4.00;;
12707;SDS011;6418;50.824;4.718;2024-02-23T09:35:47;11.03;;;3.83;;
12707;SDS011;6418;50.824;4.718;2024-02-23T09:38:14;9.97;;;4.00;;
12707;SDS011;6418;50.824;4.718;2024-02-23T09:40:41;12.67;;;4.13;;
12707;SDS011;6418;50.824;4.718;2024-02-23T09:43:08;11.57;;;4.00;;
12707;SDS011;6418;50.824;4.718;2024-02-23T09:45:36;12.00;;;4.10;;
12707;SDS011;6418;50.824;4.718;2024-02-23T09:48:05;10.83;;;4.30;;
12707;SDS011;6418;50.824;4.718;2024-02-23T09:50:34;10.47;;;3.77;;
12707;SDS011;6418;50.824;4.718;2024-02-23T09:53:05;16.60;;;4.33;;
12707;SDS011;6418;50.824;4.718;2024-02-23T09:55:35;11.40;;;3.97;;
12707;SDS011;6418;50.824;4.718;2024-02-23T09:58:02;9.50;;;3.93;;
12707;SDS011;6418;50.824;4.718;2024-02-23T10:00:30;13.87;;;4.50;;
12707;SDS011;6418;50.824;4.718;2024-02-23T10:03:00;11.13;;;4.17;;
12707;SDS011;6418;50.824;4.718;2024-02-23T10:05:29;14.13;;;4.40;;
12707;SDS011;6418;50.824;4.718;2024-02-23T10:07:57;12.30;;;3.83;;
12707;SDS011;6418;50.824;4.718;2024-02-23T10:10:25;9.67;;;3.57;;
12707;SDS011;6418;50.824;4.718;2024-02-23T10:12:56;10.37;;;3.70;;
12707;SDS011;6418;50.824;4.718;2024-02-23T10:15:24;10.40;;;3.40;;
12707;SDS011;6418;50.824;4.718;2024-02-23T10:17:51;11.33;;;3.73;;
12707;SDS011;6418;50.824;4.718;2024-02-23T10:20:19;14.17;;;3.90;;
12707;SDS011;6418;50.824;4.718;2024-02-23T10:22:46;10.07;;;3.63;;
12707;SDS011;6418;50.824;4.718;2024-02-23T10:25:13;11.60;;;3.80;;
12707;SDS011;6418;50.824;4.718;2024-02-23T10:27:41;9.40;;;3.60;;
12707;SDS011;6418;50.824;4.718;2024-02-23T10:30:09;12.47;;;3.70;;
12707;SDS011;6418;50.824;4.718;2024-02-23T10:32:38;11.33;;;3.93;;
12707;SDS011;6418;50.824;4.718;2024-02-23T10:35:07;12.27;;;3.50;;
12707;SDS011;6418;50.824;4.718;2024-02-23T10:37:36;12.60;;;3.70;;
12707;SDS011;6418;50.824;4.718;2024-02-23T10:40:04;10.00;;;3.50;;
12707;SDS011;6418;50.824;4.718;2024-02-23T10:42:37;12.43;;;3.73;;
12707;SDS011;6418;50.824;4.718;2024-02-23T10:45:07;12.07;;;3.70;;
12707;SDS011;6418;50.824;4.718;2024-02-23T10:47:35;11.40;;;3.53;;
12707;SDS011;6418;50.824;4.718;2024-02-23T10:50:03;10.60;;;3.67;;
12707;SDS011;6418;50.824;4.718;2024-02-23T10:52:31;12.40;;;3.70;;
12707;SDS011;6418;50.824;4.718;2024-02-23T10:55:00;10.07;;;3.53;;
12707;SDS011;6418;50.824;4.718;2024-02-23T10:57:29;10.37;;;3.80;;
12707;SDS011;6418;50.824;4.718;2024-02-23T10:59:57;12.80;;;3.53;;
12707;SDS011;6418;50.824;4.718;2024-02-23T11:02:27;11.23;;;3.77;;
12707;SDS011;6418;50.824;4.718;2024-02-23T11:04:57;10.03;;;3.50;;
12707;SDS011;6418;50.824;4.718;2024-02-23T11:07:29;11.43;;;3.70;;
12707;SDS011;6418;50.824;4.718;2024-02-23T11:09:58;10.40;;;3.80;;
12707;SDS011;6418;50.824;4.718;2024-02-23T11:12:26;13.63;;;4.10;;
12707;SDS011;6418;50.824;4.718;2024-02-23T11:14:58;10.70;;;3.70;;
12707;SDS011;6418;50.824;4.718;2024-02-23T11:17:27;11.90;;;3.57;;
12707;SDS011;6418;50.824;4.718;2024-02-23T11:19:57;8.93;;;3.37;;
12707;SDS011;6418;50.824;4.718;2024-02-23T11:22:25;8.70;;;3.10;;
12707;SDS011;6418;50.824;4.718;2024-02-23T11:24:59;10.73;;;3.70;;
12707;SDS011;6418;50.824;4.718;2024-02-23T11:27:29;9.53;;;3.80;;
12707;SDS011;6418;50.824;4.718;2024-02-23T11:30:01;12.87;;;3.53;;
12707;SDS011;6418;50.824;4.718;2024-02-23T11:35:14;11.43;;;3.40;;
12707;SDS011;6418;50.824;4.718;2024-02-23T11:37:45;10.63;;;3.27;;
12707;SDS011;6418;50.824;4.718;2024-02-23T11:40:13;14.20;;;3.70;;
12707;SDS011;6418;50.824;4.718;2024-02-23T11:42:40;9.60;;;3.40;;
12707;SDS011;6418;50.824;4.718;2024-02-23T11:45:08;10.33;;;3.27;;
12707;SDS011;6418;50.824;4.718;2024-02-23T11:47:36;6.57;;;2.93;;
12707;SDS011;6418;50.824;4.718;2024-02-23T11:50:05;11.23;;;3.47;;
12707;SDS011;6418;50.824;4.718;2024-02-23T11:52:34;5.97;;;2.70;;
12707;SDS011;6418;50.824;4.718;2024-02-23T11:55:01;7.90;;;3.20;;
12707;SDS011;6418;50.824;4.718;2024-02-23T11:57:30;8.53;;;3.23;;
12707;SDS011;6418;50.824;4.718;2024-02-23T11:59:57;9.83;;;3.13;;
12707;SDS011;6418;50.824;4.718;2024-02-23T12:02:24;6.77;;;2.90;;
12707;SDS011;6418;50.824;4.718;2024-02-23T12:04:51;11.40;;;3.27;;
12707;SDS011;6418;50.824;4.718;2024-02-23T12:07:19;9.87;;;3.20;;
12707;SDS011;6418;50.824;4.718;2024-02-23T12:09:46;9.43;;;3.43;;
12707;SDS011;6418;50.824;4.718;2024-02-23T12:12:14;11.87;;;3.40;;
12707;SDS011;6418;50.824;4.718;2024-02-23T12:14:41;6.70;;;3.23;;
12707;SDS011;6418;50.824;4.718;2024-02-23T12:17:08;11.13;;;3.50;;
12707;SDS011;6418;50.824;4.718;2024-02-23T12:19:37;9.17;;;3.23;;
12707;SDS011;6418;50.824;4.718;2024-02-23T12:22:05;12.03;;;3.60;;
12707;SDS011;6418;50.824;4.718;2024-02-23T12:24:33;10.90;;;3.53;;
12707;SDS011;6418;50.824;4.718;2024-02-23T12:27:00;6.07;;;3.10;;
12707;SDS011;6418;50.824;4.718;2024-02-23T12:29:27;9.27;;;3.33;;
12707;SDS011;6418;50.824;4.718;2024-02-23T12:32:02;9.97;;;3.60;;
12707;SDS011;6418;50.824;4.718;2024-02-23T12:34:29;12.13;;;3.13;;
12707;SDS011;6418;50.824;4.718;2024-02-23T12:36:56;11.93;;;3.83;;
12707;SDS011;6418;50.824;4.718;2024-02-23T12:39:23;9.40;;;3.47;;
12707;SDS011;6418;50.824;4.718;2024-02-23T12:41:53;11.23;;;3.17;;
12707;SDS011;6418;50.824;4.718;2024-02-23T12:44:22;6.47;;;2.87;;
12707;SDS011;6418;50.824;4.718;2024-02-23T12:46:48;8.17;;;3.10;;
12707;SDS011;6418;50.824;4.718;2024-02-23T12:49:15;9.30;;;3.20;;
12707;SDS011;6418;50.824;4.718;2024-02-23T12:51:42;10.23;;;3.60;;
12707;SDS011;6418;50.824;4.718;2024-02-23T12:54:09;7.20;;;3.23;;
12707;SDS011;6418;50.824;4.718;2024-02-23T12:56:36;8.07;;;3.10;;
12707;SDS011;6418;50.824;4.718;2024-02-23T12:59:04;9.53;;;3.37;;
12707;SDS011;6418;50.824;4.718;2024-02-23T13:01:32;11.60;;;3.60;;
12707;SDS011;6418;50.824;4.718;2024-02-23T13:04:02;6.00;;;3.33;;
12707;SDS011;6418;50.824;4.718;2024-02-23T13:06:34;14.77;;;3.60;;
12707;SDS011;6418;50.824;4.718;2024-02-23T13:09:02;10.47;;;3.33;;
12707;SDS011;6418;50.824;4.718;2024-02-23T13:11:29;14.23;;;3.47;;
12707;SDS011;6418;50.824;4.718;2024-02-23T13:13:56;11.87;;;3.70;;
12707;SDS011;6418;50.824;4.718;2024-02-23T13:16:25;9.47;;;3.33;;
12707;SDS011;6418;50.824;4.718;2024-02-23T13:18:52;12.17;;;3.47;;
12707;SDS011;6418;50.824;4.718;2024-02-23T13:21:19;9.90;;;3.37;;
12707;SDS011;6418;50.824;4.718;2024-02-23T13:23:46;9.47;;;3.10;;
12707;SDS011;6418;50.824;4.718;2024-02-23T13:26:12;11.33;;;3.50;;
12707;SDS011;6418;50.824;4.718;2024-02-23T13:28:41;8.00;;;3.00;;
12707;SDS011;6418;50.824;4.718;2024-02-23T13:31:08;7.53;;;3.20;;
12707;SDS011;6418;50.824;4.718;2024-02-23T13:33:36;11.43;;;3.40;;
12707;SDS011;6418;50.824;4.718;2024-02-23T13:36:03;7.97;;;3.10;;
12707;SDS011;6418;50.824;4.718;2024-02-23T13:38:31;7.70;;;3.20;;
12707;SDS011;6418;50.824;4.718;2024-02-23T13:41:03;8.87;;;3.40;;
12707;SDS011;6418;50.824;4.718;2024-02-23T13:43:30;9.13;;;3.30;;
12707;SDS011;6418;50.824;4.718;2024-02-23T13:45:58;10.23;;;3.13;;
12707;SDS011;6418;50.824;4.718;2024-02-23T13:48:25;7.03;;;2.93;;
12707;SDS011;6418;50.824;4.718;2024-02-23T13:50:53;10.33;;;3.10;;
12707;SDS011;6418;50.824;4.718;2024-02-23T13:53:20;8.23;;;2.87;;
12707;SDS011;6418;50.824;4.718;2024-02-23T13:55:47;5.93;;;3.03;;
12707;SDS011;6418;50.824;4.718;2024-02-23T13:58:15;8.63;;;3.10;;
12707;SDS011;6418;50.824;4.718;2024-02-23T14:00:42;9.37;;;2.93;;
12707;SDS011;6418;50.824;4.718;2024-02-23T14:03:10;7.27;;;2.97;;
12707;SDS011;6418;50.824;4.718;2024-02-23T14:05:42;11.07;;;2.97;;
12707;SDS011;6418;50.824;4.718;2024-02-23T14:08:12;11.47;;;3.47;;
12707;SDS011;6418;50.824;4.718;2024-02-23T14:10:39;10.27;;;2.93;;
12707;SDS011;6418;50.824;4.718;2024-02-23T14:13:08;12.07;;;3.20;;
12707;SDS011;6418;50.824;4.718;2024-02-23T14:15:35;7.17;;;3.10;;
12707;SDS011;6418;50.824;4.718;2024-02-23T14:18:01;6.87;;;3.07;;
12707;SDS011;6418;50.824;4.718;2024-02-23T14:20:28;10.47;;;3.10;;
12707;SDS011;6418;50.824;4.718;2024-02-23T14:22:55;7.40;;;2.93;;
12707;SDS011;6418;50.824;4.718;2024-02-23T14:25:24;7.97;;;3.40;;
12707;SDS011;6418;50.824;4.718;2024-02-23T14:27:50;7.60;;;3.13;;
12707;SDS011;6418;50.824;4.718;2024-02-23T14:30:17;9.50;;;3.23;;
12707;SDS011;6418;50.824;4.718;2024-02-23T14:32:44;6.43;;;3.17;;
12707;SDS011;6418;50.824;4.718;2024-02-23T14:35:11;7.80;;;2.90;;
12707;SDS011;6418;50.824;4.718;2024-02-23T14:37:38;9.10;;;3.07;;
12707;SDS011;6418;50.824;4.718;2024-02-23T14:40:05;8.40;;;3.13;;
12707;SDS011;6418;50.824;4.718;2024-02-23T14:42:35;7.43;;;2.90;;
12707;SDS011;6418;50.824;4.718;2024-02-23T14:45:02;10.27;;;3.00;;
12707;SDS011;6418;50.824;4.718;2024-02-23T14:47:29;6.80;;;2.73;;
12707;SDS011;6418;50.824;4.718;2024-02-23T14:49:57;8.33;;;3.00;;
12707;SDS011;6418;50.824;4.718;2024-02-23T14:52:23;9.27;;;2.90;;
12707;SDS011;6418;50.824;4.718;2024-02-23T14:54:50;6.90;;;2.97;;
12707;SDS011;6418;50.824;4.718;2024-02-23T14:57:19;5.03;;;2.70;;